createdAt,value
2018-07-27T00:00:48.887Z,6.00
2018-07-27T00:03:16.723Z,6.17
2018-07-27T00:05:44.423Z,5.47
2018-07-27T00:08:12.114Z,5.40
2018-07-27T00:10:39.810Z,6.07
2018-07-27T00:13:07.623Z,5.33
2018-07-27T00:15:35.288Z,5.23
2018-07-27T00:18:02.957Z,5.00
2018-07-27T00:20:30.655Z,5.60
2018-07-27T00:22:58.354Z,6.83
2018-07-27T00:25:26.025Z,6.70
2018-07-27T00:27:53.787Z,6.53
2018-07-27T00:30:21.445Z,6.80
2018-07-27T00:32:49.135Z,5.80
2018-07-27T00:35:16.828Z,6.00
2018-07-27T00:37:44.478Z,6.10
2018-07-27T00:40:12.162Z,5.93
2018-07-27T00:42:39.954Z,6.00
2018-07-27T00:45:07.624Z,5.90
2018-07-27T00:47:35.359Z,6.10
2018-07-27T00:50:03.112Z,6.30
2018-07-27T00:52:30.770Z,6.40
2018-07-27T00:54:58.479Z,6.30
2018-07-27T00:57:26.154Z,5.70
2018-07-27T00:59:53.964Z,7.67
2018-07-27T01:02:21.739Z,8.03
2018-07-27T01:04:49.386Z,7.10
2018-07-27T01:07:17.060Z,7.00
2018-07-27T01:09:44.728Z,6.87
2018-07-27T01:12:12.404Z,6.83
2018-07-27T01:14:39.985Z,7.07
2018-07-27T01:17:07.809Z,8.10
2018-07-27T01:19:35.511Z,6.83
2018-07-27T01:22:03.235Z,6.07
2018-07-27T01:24:30.874Z,6.80
2018-07-27T01:26:58.498Z,6.63
2018-07-27T01:29:26.150Z,6.90
2018-07-27T01:31:53.783Z,6.83
2018-07-27T01:34:21.606Z,7.10
2018-07-27T01:36:49.247Z,8.80
2018-07-27T01:39:16.936Z,7.50
2018-07-27T01:41:44.585Z,7.00
2018-07-27T01:44:12.349Z,7.00
2018-07-27T01:46:40.455Z,7.17
2018-07-27T01:49:09.226Z,9.05
2018-07-27T01:51:36.938Z,8.03
2018-07-27T01:54:04.659Z,6.85
2018-07-27T01:56:32.603Z,7.22
2018-07-27T01:59:00.239Z,10.32
2018-07-27T02:01:27.912Z,7.55
2018-07-27T02:03:55.701Z,7.00
2018-07-27T02:06:23.396Z,6.70
2018-07-27T02:08:51.051Z,6.87
2018-07-27T02:11:18.820Z,7.83
2018-07-27T02:13:46.654Z,8.07
2018-07-27T02:16:14.356Z,8.10
2018-07-27T02:18:42.028Z,8.93
2018-07-27T02:21:09.614Z,7.50
2018-07-27T02:23:37.291Z,7.87
2018-07-27T02:26:04.946Z,8.68
2018-07-27T02:28:32.626Z,7.40
2018-07-27T02:31:00.315Z,8.30
2018-07-27T02:33:28.028Z,7.92
2018-07-27T02:35:55.813Z,7.83
2018-07-27T02:38:23.495Z,8.50
2018-07-27T02:40:51.191Z,8.30
2018-07-27T02:43:18.856Z,8.37
2018-07-27T02:45:46.422Z,14.00
2018-07-27T02:48:14.109Z,7.90
2018-07-27T02:50:41.760Z,7.58
2018-07-27T02:53:09.431Z,8.00
2018-07-27T02:55:37.231Z,8.33
2018-07-27T02:58:04.931Z,7.45
2018-07-27T03:00:32.531Z,8.53
2018-07-27T03:03:00.300Z,9.55
2018-07-27T03:05:27.997Z,8.30
2018-07-27T03:07:55.689Z,7.30
2018-07-27T03:10:23.443Z,7.58
2018-07-27T03:12:50.967Z,8.35
2018-07-27T03:15:18.650Z,8.63
2018-07-27T03:17:46.324Z,8.35
2018-07-27T03:20:14.007Z,8.50
2018-07-27T03:22:41.666Z,7.53
2018-07-27T03:25:09.446Z,11.18
2018-07-27T03:27:37.112Z,7.85
2018-07-27T03:30:05.567Z,8.83
2018-07-27T03:32:33.236Z,8.60
2018-07-27T03:35:00.890Z,9.98
2018-07-27T03:37:28.680Z,8.33
2018-07-27T03:39:56.359Z,8.43
2018-07-27T03:42:24.152Z,9.95
2018-07-27T03:44:51.787Z,8.03
2018-07-27T03:47:19.469Z,8.70
2018-07-27T03:49:47.118Z,8.50
2018-07-27T03:52:14.829Z,7.92
2018-07-27T03:54:42.458Z,7.95
2018-07-27T03:57:10.243Z,10.32
2018-07-27T03:59:37.915Z,7.95
2018-07-27T04:02:05.615Z,9.30
2018-07-27T04:04:33.431Z,8.43
2018-07-27T04:07:01.127Z,8.60
2018-07-27T04:09:28.824Z,7.10
2018-07-27T04:11:56.525Z,8.10
2018-07-27T04:14:24.300Z,7.65
2018-07-27T04:16:51.956Z,8.25
2018-07-27T04:19:19.693Z,7.50
2018-07-27T04:21:47.352Z,7.40
2018-07-27T04:24:15.036Z,6.83
2018-07-27T04:26:42.704Z,9.68
2018-07-27T04:29:10.326Z,9.48
2018-07-27T04:31:37.992Z,7.58
2018-07-27T04:34:05.682Z,7.17
2018-07-27T04:36:33.370Z,8.00
2018-07-27T04:39:01.166Z,7.25
2018-07-27T04:41:28.844Z,6.60
2018-07-27T04:43:56.488Z,8.88
2018-07-27T04:46:24.276Z,7.47
2018-07-27T04:48:51.966Z,7.72
2018-07-27T04:51:19.633Z,9.45
2018-07-27T04:53:47.312Z,9.50
2018-07-27T04:56:15.034Z,9.37
2018-07-27T05:12:57.699Z,9.38
2018-07-27T05:15:25.321Z,7.57
2018-07-27T05:17:52.960Z,8.78
2018-07-27T05:20:20.626Z,11.22
2018-07-27T05:22:48.278Z,8.10
2018-07-27T05:25:15.941Z,11.30
2018-07-27T05:27:44.235Z,9.40
2018-07-27T05:30:11.938Z,8.25
2018-07-27T05:32:39.648Z,9.23
2018-07-27T05:35:07.402Z,9.17
2018-07-27T05:37:35.068Z,14.00
2018-07-27T05:40:02.843Z,8.90
2018-07-27T05:42:30.532Z,10.28
2018-07-27T05:44:58.250Z,10.87
2018-07-27T05:47:25.940Z,9.30
2018-07-27T05:49:53.604Z,9.23
2018-07-27T05:52:21.279Z,8.83
2018-07-27T05:54:48.990Z,9.63
2018-07-27T05:57:16.691Z,11.63
2018-07-27T05:59:44.378Z,8.73
2018-07-27T06:02:12.028Z,10.80
2018-07-27T06:04:39.686Z,9.13
2018-07-27T06:07:07.379Z,8.93
2018-07-27T06:09:35.035Z,12.40
2018-07-27T06:12:02.751Z,12.90
2018-07-27T06:14:30.558Z,10.53
2018-07-27T06:16:58.207Z,9.50
2018-07-27T06:19:25.842Z,13.37
2018-07-27T06:21:53.507Z,9.43
2018-07-27T06:24:21.284Z,11.43
2018-07-27T06:26:48.847Z,9.40
2018-07-27T06:29:16.526Z,12.23
2018-07-27T06:31:44.152Z,8.53
2018-07-27T06:34:11.863Z,12.23
2018-07-27T06:36:39.544Z,9.00
2018-07-27T06:39:08.641Z,11.60
2018-07-27T06:41:36.263Z,11.20
2018-07-27T06:44:03.948Z,11.47
2018-07-27T06:46:31.657Z,11.07
2018-07-27T06:48:59.296Z,10.10
2018-07-27T06:51:26.945Z,9.83
2018-07-27T06:53:54.627Z,8.67
2018-07-27T06:56:22.327Z,12.63
2018-07-27T06:58:50.056Z,10.47
2018-07-27T07:01:17.720Z,9.10
2018-07-27T07:04:01.942Z,8.87
2018-07-27T07:06:29.603Z,10.77
2018-07-27T07:09:20.686Z,13.10
2018-07-27T07:11:48.361Z,10.27
2018-07-27T07:14:16.040Z,8.80
2018-07-27T07:16:43.723Z,9.27
2018-07-27T07:19:11.388Z,10.53
2018-07-27T07:21:49.697Z,6.70
2018-07-27T07:24:18.816Z,8.47
2018-07-27T07:26:49.247Z,20.63
2018-07-27T07:29:20.827Z,9.63
2018-07-27T07:31:48.675Z,11.23
2018-07-27T07:34:21.122Z,7.33
2018-07-27T07:37:03.091Z,7.37
2018-07-27T07:39:36.951Z,7.13
2018-07-27T07:42:10.932Z,7.97
2018-07-27T07:44:45.249Z,7.07
2018-07-27T07:47:12.907Z,7.00
2018-07-27T07:49:41.500Z,9.03
2018-07-27T07:52:09.220Z,10.23
2018-07-27T07:58:35.808Z,6.90
2018-07-27T08:01:03.533Z,7.90
2018-07-27T08:03:31.247Z,6.80
2018-07-27T08:05:58.992Z,7.37
2018-07-27T08:08:26.694Z,11.73
2018-07-27T08:10:54.407Z,7.63
2018-07-27T08:13:22.213Z,6.43
2018-07-27T08:15:49.931Z,9.70
2018-07-27T08:18:17.638Z,9.43
2018-07-27T09:24:59.044Z,6.17
2018-07-27T09:30:39.922Z,5.40
2018-07-27T09:33:07.696Z,6.63
2018-07-27T09:35:36.937Z,4.70
2018-07-27T09:38:13.239Z,4.97
2018-07-27T09:40:41.305Z,5.40
2018-07-27T09:43:09.007Z,5.43
2018-07-27T09:45:36.731Z,5.63
2018-07-27T09:48:04.487Z,6.07
2018-07-27T09:50:32.840Z,4.70
2018-07-27T09:53:01.724Z,5.97
2018-07-27T09:55:29.569Z,5.50
2018-07-27T09:58:03.481Z,5.43
2018-07-27T10:00:55.368Z,4.87
2018-07-27T10:03:46.386Z,6.03
2018-07-27T10:06:20.347Z,5.97
2018-07-27T10:08:59.199Z,5.40
2018-07-27T10:11:27.130Z,5.77
2018-07-27T10:13:54.814Z,6.03
2018-07-27T10:16:22.534Z,5.47
2018-07-27T10:18:50.207Z,5.60
2018-07-27T10:21:17.908Z,5.67
2018-07-27T10:23:45.600Z,6.03
2018-07-27T10:26:13.397Z,7.20
2018-07-27T10:28:41.068Z,5.60
2018-07-27T10:31:08.722Z,6.00
2018-07-27T10:33:36.403Z,7.03
2018-07-27T10:36:04.199Z,6.00
2018-07-27T10:38:32.141Z,8.97
2018-07-27T10:40:59.879Z,6.30
2018-07-27T10:43:27.591Z,6.30
2018-07-27T10:45:55.372Z,6.53
2018-07-27T10:48:23.681Z,5.87
2018-07-27T10:50:51.345Z,6.30
2018-07-27T10:53:26.549Z,6.07
2018-07-27T10:55:58.918Z,5.97
2018-07-27T10:58:26.579Z,5.63
2018-07-27T11:00:56.088Z,5.80
2018-07-27T11:03:24.313Z,6.97
2018-07-27T11:05:52.000Z,6.20
2018-07-27T11:08:19.688Z,6.07
2018-07-27T11:10:47.988Z,5.53
2018-07-27T11:13:15.663Z,6.37
2018-07-27T11:15:43.386Z,6.33
2018-07-27T11:18:11.124Z,6.70
2018-07-27T11:20:38.760Z,6.33
2018-07-27T11:23:06.503Z,6.97
2018-07-27T11:25:34.252Z,5.77
2018-07-27T11:28:01.977Z,5.77
2018-07-27T11:30:29.666Z,6.57
2018-07-27T11:32:57.387Z,6.20
2018-07-27T11:35:25.115Z,5.57
2018-07-27T11:37:52.782Z,5.50
2018-07-27T11:40:20.487Z,5.40
2018-07-27T11:42:48.147Z,5.50
2018-07-27T11:45:15.840Z,5.40
2018-07-27T11:47:43.543Z,6.13
2018-07-27T11:50:11.232Z,6.07
2018-07-27T11:52:38.887Z,5.23
2018-07-27T11:55:06.556Z,5.87
2018-07-27T11:57:34.300Z,5.60
2018-07-27T12:00:02.075Z,5.47
2018-07-27T12:02:29.792Z,5.13
2018-07-27T12:04:57.516Z,4.97
2018-07-27T12:07:25.223Z,5.43
2018-07-27T12:09:52.892Z,5.70
2018-07-27T12:12:20.559Z,5.10
2018-07-27T12:14:48.333Z,6.00
2018-07-27T12:17:16.096Z,6.07
2018-07-27T12:19:43.788Z,5.47
2018-07-27T12:22:11.545Z,5.90
2018-07-27T12:24:39.190Z,6.13
2018-07-27T12:27:06.908Z,5.70
2018-07-27T12:29:34.551Z,6.17
2018-07-27T12:32:02.231Z,6.90
2018-07-27T12:34:29.940Z,5.83
2018-07-27T12:36:57.648Z,6.97
2018-07-27T12:39:25.377Z,5.37
2018-07-27T12:41:53.096Z,5.87
2018-07-27T12:44:20.810Z,6.00
2018-07-27T12:46:48.479Z,5.97
2018-07-27T12:49:16.148Z,5.20
2018-07-27T12:51:43.829Z,6.77
2018-07-27T12:54:11.537Z,5.70
2018-07-27T12:56:39.198Z,5.90
2018-07-27T12:59:06.876Z,5.20
2018-07-27T13:01:34.596Z,6.27
2018-07-27T13:04:02.271Z,5.00
2018-07-27T13:06:29.936Z,5.60
2018-07-27T13:11:56.523Z,5.80
2018-07-27T13:14:24.178Z,5.57
2018-07-27T13:16:51.899Z,6.03
2018-07-27T13:22:12.859Z,5.80
2018-07-27T13:27:08.112Z,5.40
2018-07-27T13:29:35.794Z,5.30
2018-07-27T13:32:03.527Z,4.97
2018-07-27T13:34:34.359Z,5.80
2018-07-27T13:37:02.569Z,6.50
2018-07-27T13:39:30.697Z,5.37
2018-07-27T13:41:59.618Z,6.70
2018-07-27T13:44:27.282Z,6.23
2018-07-27T13:46:55.388Z,6.43
2018-07-27T13:49:23.059Z,5.90
2018-07-27T13:51:50.792Z,5.40
2018-07-27T13:54:18.474Z,5.77
2018-07-27T13:56:47.104Z,5.87
2018-07-27T13:59:15.430Z,5.80
2018-07-27T14:01:43.138Z,5.73
2018-07-27T14:04:10.902Z,6.00
2018-07-27T14:06:38.561Z,6.27
2018-07-27T14:09:08.856Z,5.90
2018-07-27T14:11:36.560Z,5.43
2018-07-27T14:14:04.476Z,5.57
2018-07-27T14:16:32.198Z,5.93
2018-07-27T14:19:00.151Z,6.27
2018-07-27T14:21:27.850Z,7.00
2018-07-27T14:23:55.590Z,5.33
2018-07-27T14:26:23.483Z,5.57
2018-07-27T14:28:51.391Z,6.13
2018-07-27T14:31:19.129Z,6.07
2018-07-27T14:33:46.846Z,5.50
2018-07-27T14:36:14.583Z,6.40
2018-07-27T14:38:42.256Z,6.03
2018-07-27T14:41:10.087Z,6.13
2018-07-27T14:43:37.786Z,5.57
2018-07-27T14:46:06.241Z,5.43
2018-07-27T14:48:33.996Z,5.47
2018-07-27T14:51:01.944Z,6.43
2018-07-27T14:53:29.726Z,5.93
2018-07-27T14:55:57.610Z,5.90
2018-07-27T14:58:25.355Z,6.00
2018-07-27T15:00:53.072Z,6.27
2018-07-27T15:03:20.791Z,5.83
2018-07-27T15:05:48.539Z,6.23
2018-07-27T15:08:16.261Z,6.00
2018-07-27T15:10:43.983Z,6.23
2018-07-27T15:13:12.328Z,5.70
2018-07-27T15:15:39.922Z,6.33
2018-07-27T15:18:07.768Z,6.30
2018-07-27T15:20:35.616Z,5.90
2018-07-27T15:23:03.336Z,6.50
2018-07-27T15:25:31.433Z,6.30
2018-07-27T15:27:59.137Z,5.87
2018-07-27T15:30:26.804Z,6.07
2018-07-27T15:32:54.883Z,6.33
2018-07-27T15:35:22.521Z,5.90
2018-07-27T15:37:50.120Z,6.20
2018-07-27T15:40:17.785Z,6.63
2018-07-27T15:42:45.500Z,5.73
2018-07-27T15:45:13.210Z,6.60
2018-07-27T15:47:40.949Z,6.20
2018-07-27T15:50:08.653Z,6.10
2018-07-27T15:52:36.347Z,6.43
2018-07-27T15:55:04.114Z,5.50
2018-07-27T15:57:31.827Z,5.90
2018-07-27T15:59:59.680Z,5.53
2018-07-27T16:02:27.372Z,5.47
2018-07-27T16:04:55.216Z,6.23
2018-07-27T16:07:22.875Z,5.60
2018-07-27T16:09:50.707Z,5.97
2018-07-27T16:12:18.419Z,5.83
2018-07-27T16:14:46.126Z,5.90
2018-07-27T16:17:13.832Z,6.27
2018-07-27T16:19:41.540Z,6.00
2018-07-27T16:22:09.258Z,5.43
2018-07-27T16:24:36.975Z,6.03
2018-07-27T16:27:04.649Z,5.60
2018-07-27T16:29:32.383Z,6.20
2018-07-27T16:32:00.166Z,6.30
2018-07-27T16:34:27.888Z,6.33
2018-07-27T16:36:55.591Z,6.07
2018-07-27T16:39:23.320Z,8.23
2018-07-27T16:41:51.175Z,6.00
2018-07-27T16:44:18.868Z,5.70
2018-07-27T16:46:46.649Z,7.20
2018-07-27T16:49:14.352Z,6.17
2018-07-27T16:51:42.107Z,6.50
2018-07-27T16:54:09.796Z,6.33
2018-07-27T16:56:37.479Z,5.67
2018-07-27T16:59:05.119Z,6.10
2018-07-27T17:01:32.857Z,6.13
2018-07-27T17:04:00.559Z,6.07
2018-07-27T17:06:28.272Z,5.80
2018-07-27T17:08:55.939Z,6.30
2018-07-27T17:11:23.684Z,5.37
2018-07-27T17:13:51.231Z,6.27
2018-07-27T17:16:18.968Z,5.50
2018-07-27T17:18:46.647Z,5.43
2018-07-27T17:21:14.355Z,5.90
2018-07-27T17:23:42.094Z,5.90
2018-07-27T17:26:09.854Z,5.30
2018-07-27T17:28:37.531Z,5.70
2018-07-27T17:31:05.352Z,6.07
2018-07-27T17:33:33.100Z,7.57
2018-07-27T17:36:00.820Z,5.87
2018-07-27T17:38:28.461Z,5.90
2018-07-27T17:40:56.123Z,6.40
2018-07-27T17:43:23.831Z,5.50
2018-07-27T17:45:51.661Z,5.43
2018-07-27T17:48:19.398Z,6.40
2018-07-27T17:50:47.125Z,5.97
2018-07-27T17:53:14.874Z,5.33
2018-07-27T17:55:42.540Z,5.37
2018-07-27T17:58:10.262Z,6.50
2018-07-27T18:00:38.027Z,6.07
2018-07-27T18:03:05.816Z,5.60
2018-07-27T18:05:33.530Z,5.27
2018-07-27T18:08:01.302Z,5.37
2018-07-27T18:10:28.998Z,5.30
2018-07-27T18:12:56.702Z,5.30
2018-07-27T18:15:24.425Z,5.43
2018-07-27T18:17:52.102Z,5.47
2018-07-27T18:20:19.811Z,5.63
2018-07-27T18:22:47.530Z,5.23
2018-07-27T18:25:16.256Z,5.27
2018-07-27T18:27:44.692Z,6.00
2018-07-27T18:30:12.506Z,5.47
2018-07-27T18:32:40.250Z,4.97
2018-07-27T18:35:08.779Z,5.43
2018-07-27T18:37:36.976Z,5.40
2018-07-27T18:40:05.089Z,5.70
2018-07-27T18:42:32.769Z,5.50
2018-07-27T18:45:00.505Z,5.87
2018-07-27T18:47:28.200Z,6.10
2018-07-27T18:49:55.898Z,6.10
2018-07-27T18:52:43.350Z,5.20
2018-07-27T18:55:11.105Z,6.07
2018-07-27T18:57:38.763Z,5.80
2018-07-27T19:00:06.856Z,6.00
2018-07-27T19:02:34.571Z,5.77
2018-07-27T19:05:02.324Z,5.43
2018-07-27T19:07:30.032Z,6.17
2018-07-27T19:09:57.769Z,7.80
2018-07-27T19:12:25.535Z,6.27
2018-07-27T19:14:53.273Z,5.67
2018-07-27T19:17:20.999Z,5.63
2018-07-27T19:19:48.734Z,6.70
2018-07-27T19:22:16.496Z,6.20
2018-07-27T19:24:44.196Z,6.37
2018-07-27T19:27:12.007Z,5.97
2018-07-27T19:29:39.709Z,5.90
2018-07-27T19:32:07.459Z,6.40
2018-07-27T19:34:35.115Z,5.43
2018-07-27T19:37:02.939Z,5.97
2018-07-27T19:39:30.641Z,6.03
2018-07-27T19:41:58.366Z,6.13
2018-07-27T19:44:26.116Z,6.37
2018-07-27T19:46:53.784Z,6.13
2018-07-27T19:49:21.516Z,6.90
2018-07-27T19:51:49.227Z,6.33
2018-07-27T19:54:16.906Z,5.97
2018-07-27T19:56:44.614Z,6.80
2018-07-27T19:59:12.404Z,6.03
2018-07-27T20:01:40.126Z,6.37
2018-07-27T20:04:07.898Z,7.97
2018-07-27T20:06:35.589Z,6.73
2018-07-27T20:09:05.719Z,10.60
2018-07-27T20:11:33.395Z,6.33
2018-07-27T20:14:01.147Z,10.43
2018-07-27T20:16:28.868Z,7.10
2018-07-27T20:18:56.595Z,5.73
2018-07-27T20:21:24.388Z,6.27
2018-07-27T20:23:52.061Z,8.40
2018-07-27T20:26:19.802Z,6.23
2018-07-27T20:28:47.390Z,6.60
2018-07-27T20:31:15.101Z,6.67
2018-07-27T20:33:42.775Z,6.27
2018-07-27T20:36:10.481Z,6.77
2018-07-27T20:38:38.187Z,6.37
2018-07-27T20:41:06.864Z,7.07
2018-07-27T20:43:34.591Z,6.00
2018-07-27T20:46:02.351Z,9.30
2018-07-27T20:48:30.118Z,5.87
2018-07-27T20:50:57.869Z,6.43
2018-07-27T20:53:25.612Z,6.83
2018-07-27T20:55:53.470Z,7.13
2018-07-27T20:58:21.183Z,6.57
2018-07-27T21:00:48.887Z,7.17
2018-07-27T21:03:16.629Z,7.40
2018-07-27T21:05:44.335Z,7.23
2018-07-27T21:08:12.062Z,11.03
2018-07-27T21:10:39.753Z,8.80
2018-07-27T21:13:07.567Z,10.63
2018-07-27T21:15:35.344Z,8.40
2018-07-27T21:18:03.277Z,9.10
2018-07-27T21:20:30.951Z,7.80
2018-07-27T21:22:58.704Z,8.03
2018-07-27T21:25:26.475Z,8.00
2018-07-27T21:27:54.273Z,7.20
2018-07-27T21:30:22.023Z,7.33
2018-07-27T21:32:49.788Z,7.63
2018-07-27T21:35:17.543Z,6.93
2018-07-27T21:37:45.274Z,7.70
2018-07-27T21:40:12.963Z,7.43
2018-07-27T21:42:40.748Z,7.53
2018-07-27T21:45:08.431Z,7.40
2018-07-27T21:47:36.110Z,7.73
2018-07-27T21:50:04.662Z,7.20
2018-07-27T21:52:32.408Z,6.90
2018-07-27T21:55:00.126Z,7.60
2018-07-27T21:57:27.800Z,8.50
2018-07-27T21:59:55.538Z,8.50
2018-07-27T22:02:23.297Z,7.43
2018-07-27T22:04:51.098Z,7.60
2018-07-27T22:07:18.762Z,8.17
2018-07-27T22:09:46.437Z,8.07
2018-07-27T22:12:14.207Z,8.40
2018-07-27T22:14:41.900Z,8.27
2018-07-27T22:17:09.657Z,9.53
2018-07-27T22:19:37.372Z,8.67
2018-07-27T22:22:05.105Z,8.63
2018-07-27T22:24:32.844Z,9.23
2018-07-27T22:27:00.537Z,9.27
2018-07-27T22:29:28.233Z,8.87
2018-07-27T22:31:55.955Z,8.30
2018-07-27T22:34:23.515Z,8.47
2018-07-27T22:36:51.244Z,8.07
2018-07-27T22:39:18.983Z,8.60
2018-07-27T22:41:46.739Z,9.27
2018-07-27T22:44:14.436Z,9.20
2018-07-27T22:46:42.151Z,9.20
2018-07-27T22:49:09.830Z,8.37
2018-07-27T22:51:37.524Z,9.33
2018-07-27T22:54:05.213Z,9.40
2018-07-27T22:56:32.959Z,9.00
2018-07-27T22:59:00.646Z,10.77
2018-07-27T23:01:28.351Z,13.53
2018-07-27T23:03:56.076Z,9.00
2018-07-27T23:06:23.759Z,9.17
2018-07-27T23:08:51.442Z,10.13
2018-07-27T23:11:19.124Z,8.63
2018-07-27T23:13:46.825Z,9.47
2018-07-27T23:16:14.552Z,12.00
2018-07-27T23:18:42.214Z,9.57
2018-07-27T23:21:09.897Z,9.90
2018-07-27T23:23:37.547Z,9.00
2018-07-27T23:26:05.357Z,8.77
2018-07-27T23:28:33.124Z,10.53
2018-07-27T23:31:00.879Z,9.37
2018-07-27T23:33:28.535Z,11.30
2018-07-27T23:35:56.286Z,9.10
2018-07-27T23:38:23.964Z,9.80
2018-07-27T23:40:51.649Z,9.20
2018-07-27T23:43:19.343Z,8.90
2018-07-27T23:45:47.013Z,9.00
2018-07-27T23:48:14.703Z,8.93
2018-07-27T23:50:42.370Z,9.70
2018-07-27T23:53:10.071Z,8.87
2018-07-27T23:55:37.755Z,8.87
2018-07-27T23:58:05.484Z,9.13
